sensor_id;sensor_type;location;lat;lon;timestamp;temperature;humidity
22852;DHT22;11592;45.460;9.240;2023-09-12T00:00:48;24.30;99.90
22852;DHT22;11592;45.460;9.240;2023-09-12T00:03:19;24.30;99.90
22852;DHT22;11592;45.460;9.240;2023-09-12T00:05:54;24.30;99.90
22852;DHT22;11592;45.460;9.240;2023-09-12T00:08:21;24.20;99.90
22852;DHT22;11592;45.460;9.240;2023-09-12T00:11:05;24.10;99.90
22852;DHT22;11592;45.460;9.240;2023-09-12T00:13:33;24.20;99.90
22852;DHT22;11592;45.460;9.240;2023-09-12T00:16:00;24.40;99.90
22852;DHT22;11592;45.460;9.240;2023-09-12T00:18:27;24.40;99.90
22852;DHT22;11592;45.460;9.240;2023-09-12T00:20:55;24.50;99.90
22852;DHT22;11592;45.460;9.240;2023-09-12T00:23:22;24.40;99.90
22852;DHT22;11592;45.460;9.240;2023-09-12T00:25:50;24.20;99.90
22852;DHT22;11592;45.460;9.240;2023-09-12T00:28:19;24.00;99.90
22852;DHT22;11592;45.460;9.240;2023-09-12T00:30:46;23.90;99.90
22852;DHT22;11592;45.460;9.240;2023-09-12T00:33:13;23.80;99.90
22852;DHT22;11592;45.460;9.240;2023-09-12T00:35:40;23.90;99.90
22852;DHT22;11592;45.460;9.240;2023-09-12T00:38:08;23.90;99.90
22852;DHT22;11592;45.460;9.240;2023-09-12T00:40:35;24.00;99.90
22852;DHT22;11592;45.460;9.240;2023-09-12T00:43:01;24.00;99.90
22852;DHT22;11592;45.460;9.240;2023-09-12T00:45:28;24.00;99.90
22852;DHT22;11592;45.460;9.240;2023-09-12T00:47:57;24.00;99.90
22852;DHT22;11592;45.460;9.240;2023-09-12T00:50:25;23.90;99.90
22852;DHT22;11592;45.460;9.240;2023-09-12T00:52:53;24.00;99.90
22852;DHT22;11592;45.460;9.240;2023-09-12T00:55:21;24.00;99.90
22852;DHT22;11592;45.460;9.240;2023-09-12T00:57:48;24.00;99.90
22852;DHT22;11592;45.460;9.240;2023-09-12T01:00:16;24.10;99.90
22852;DHT22;11592;45.460;9.240;2023-09-12T01:02:44;24.10;99.90
22852;DHT22;11592;45.460;9.240;2023-09-12T01:05:13;24.00;99.90
22852;DHT22;11592;45.460;9.240;2023-09-12T01:07:42;23.90;99.90
22852;DHT22;11592;45.460;9.240;2023-09-12T01:10:10;23.90;99.90
22852;DHT22;11592;45.460;9.240;2023-09-12T01:12:37;23.70;99.90
22852;DHT22;11592;45.460;9.240;2023-09-12T01:15:05;23.70;99.90
22852;DHT22;11592;45.460;9.240;2023-09-12T01:17:36;23.60;99.90
22852;DHT22;11592;45.460;9.240;2023-09-12T01:20:05;23.60;99.90
22852;DHT22;11592;45.460;9.240;2023-09-12T01:22:52;23.70;99.90
22852;DHT22;11592;45.460;9.240;2023-09-12T01:25:45;23.60;99.90
22852;DHT22;11592;45.460;9.240;2023-09-12T01:28:21;23.60;99.90
22852;DHT22;11592;45.460;9.240;2023-09-12T01:30:50;23.70;99.90
22852;DHT22;11592;45.460;9.240;2023-09-12T01:33:18;23.80;99.90
22852;DHT22;11592;45.460;9.240;2023-09-12T01:35:46;23.70;99.90
22852;DHT22;11592;45.460;9.240;2023-09-12T01:38:14;23.50;99.90
22852;DHT22;11592;45.460;9.240;2023-09-12T01:40:49;23.60;99.90
22852;DHT22;11592;45.460;9.240;2023-09-12T01:43:18;23.50;99.90
22852;DHT22;11592;45.460;9.240;2023-09-12T01:45:48;23.50;99.90
22852;DHT22;11592;45.460;9.240;2023-09-12T01:48:20;23.50;99.90
22852;DHT22;11592;45.460;9.240;2023-09-12T01:50:49;23.60;99.90
22852;DHT22;11592;45.460;9.240;2023-09-12T01:53:16;23.50;99.90
22852;DHT22;11592;45.460;9.240;2023-09-12T01:55:44;23.30;99.90
22852;DHT22;11592;45.460;9.240;2023-09-12T01:58:12;23.20;99.90
22852;DHT22;11592;45.460;9.240;2023-09-12T02:00:39;23.40;99.90
22852;DHT22;11592;45.460;9.240;2023-09-12T02:03:06;23.40;99.90
22852;DHT22;11592;45.460;9.240;2023-09-12T02:05:34;23.30;99.90
22852;DHT22;11592;45.460;9.240;2023-09-12T02:08:01;23.30;99.90
22852;DHT22;11592;45.460;9.240;2023-09-12T02:10:28;23.20;99.90
22852;DHT22;11592;45.460;9.240;2023-09-12T02:12:55;23.20;99.90
22852;DHT22;11592;45.460;9.240;2023-09-12T02:15:21;23.30;99.90
22852;DHT22;11592;45.460;9.240;2023-09-12T02:17:48;23.30;99.90
22852;DHT22;11592;45.460;9.240;2023-09-12T02:20:17;23.20;99.90
22852;DHT22;11592;45.460;9.240;2023-09-12T02:22:45;23.20;99.90
22852;DHT22;11592;45.460;9.240;2023-09-12T02:25:12;23.20;99.90
22852;DHT22;11592;45.460;9.240;2023-09-12T02:27:38;23.30;99.90
22852;DHT22;11592;45.460;9.240;2023-09-12T02:30:06;23.20;99.90
22852;DHT22;11592;45.460;9.240;2023-09-12T02:32:33;23.30;99.90
22852;DHT22;11592;45.460;9.240;2023-09-12T02:35:00;23.30;99.90
22852;DHT22;11592;45.460;9.240;2023-09-12T02:37:26;23.30;99.90
22852;DHT22;11592;45.460;9.240;2023-09-12T02:39:53;23.20;99.90
22852;DHT22;11592;45.460;9.240;2023-09-12T02:42:20;23.20;99.90
22852;DHT22;11592;45.460;9.240;2023-09-12T02:44:47;23.20;99.90
22852;DHT22;11592;45.460;9.240;2023-09-12T02:47:14;23.10;99.90
22852;DHT22;11592;45.460;9.240;2023-09-12T02:49:41;23.00;99.90
22852;DHT22;11592;45.460;9.240;2023-09-12T02:52:07;23.00;99.90
22852;DHT22;11592;45.460;9.240;2023-09-12T02:54:34;23.10;99.90
22852;DHT22;11592;45.460;9.240;2023-09-12T02:57:01;23.10;99.90
22852;DHT22;11592;45.460;9.240;2023-09-12T02:59:29;23.00;99.90
22852;DHT22;11592;45.460;9.240;2023-09-12T03:01:56;23.10;99.90
22852;DHT22;11592;45.460;9.240;2023-09-12T03:04:25;23.00;99.90
22852;DHT22;11592;45.460;9.240;2023-09-12T03:06:53;23.10;99.90
22852;DHT22;11592;45.460;9.240;2023-09-12T03:09:20;23.10;99.90
22852;DHT22;11592;45.460;9.240;2023-09-12T03:11:47;23.10;99.90
22852;DHT22;11592;45.460;9.240;2023-09-12T03:14:14;23.10;99.90
22852;DHT22;11592;45.460;9.240;2023-09-12T03:16:41;23.00;99.90
22852;DHT22;11592;45.460;9.240;2023-09-12T03:19:07;22.90;99.90
22852;DHT22;11592;45.460;9.240;2023-09-12T03:21:34;22.90;99.90
22852;DHT22;11592;45.460;9.240;2023-09-12T03:24:01;22.90;99.90
22852;DHT22;11592;45.460;9.240;2023-09-12T03:26:28;22.80;99.90
22852;DHT22;11592;45.460;9.240;2023-09-12T03:28:55;22.80;99.90
22852;DHT22;11592;45.460;9.240;2023-09-12T03:31:22;22.70;99.90
22852;DHT22;11592;45.460;9.240;2023-09-12T03:33:49;22.80;99.90
22852;DHT22;11592;45.460;9.240;2023-09-12T03:36:17;22.80;99.90
22852;DHT22;11592;45.460;9.240;2023-09-12T03:38:44;22.80;99.90
22852;DHT22;11592;45.460;9.240;2023-09-12T03:41:11;22.80;99.90
22852;DHT22;11592;45.460;9.240;2023-09-12T03:43:38;22.70;99.90
22852;DHT22;11592;45.460;9.240;2023-09-12T03:46:05;22.70;99.90
22852;DHT22;11592;45.460;9.240;2023-09-12T03:48:32;22.70;99.90
22852;DHT22;11592;45.460;9.240;2023-09-12T03:50:59;22.80;99.90
22852;DHT22;11592;45.460;9.240;2023-09-12T03:53:27;22.70;99.90
22852;DHT22;11592;45.460;9.240;2023-09-12T03:55:54;22.80;99.90
22852;DHT22;11592;45.460;9.240;2023-09-12T03:58:21;22.80;99.90
22852;DHT22;11592;45.460;9.240;2023-09-12T04:00:49;22.70;99.90
22852;DHT22;11592;45.460;9.240;2023-09-12T04:03:16;22.50;99.90
22852;DHT22;11592;45.460;9.240;2023-09-12T04:05:43;22.60;99.90
22852;DHT22;11592;45.460;9.240;2023-09-12T04:08:12;22.50;99.90
22852;DHT22;11592;45.460;9.240;2023-09-12T04:10:39;22.60;99.90
22852;DHT22;11592;45.460;9.240;2023-09-12T04:13:06;22.50;99.90
22852;DHT22;11592;45.460;9.240;2023-09-12T04:15:33;22.40;99.90
22852;DHT22;11592;45.460;9.240;2023-09-12T04:18:00;22.30;99.90
22852;DHT22;11592;45.460;9.240;2023-09-12T04:20:27;22.40;99.90
22852;DHT22;11592;45.460;9.240;2023-09-12T04:22:54;22.40;99.90
22852;DHT22;11592;45.460;9.240;2023-09-12T04:25:21;22.40;99.90
22852;DHT22;11592;45.460;9.240;2023-09-12T04:27:47;22.40;99.90
22852;DHT22;11592;45.460;9.240;2023-09-12T04:30:14;22.50;99.90
22852;DHT22;11592;45.460;9.240;2023-09-12T04:32:41;22.40;99.90
22852;DHT22;11592;45.460;9.240;2023-09-12T04:35:08;22.40;99.90
22852;DHT22;11592;45.460;9.240;2023-09-12T04:37:35;22.50;99.90
22852;DHT22;11592;45.460;9.240;2023-09-12T04:40:02;22.50;99.90
22852;DHT22;11592;45.460;9.240;2023-09-12T04:42:31;22.40;99.90
22852;DHT22;11592;45.460;9.240;2023-09-12T04:44:58;22.40;99.90
22852;DHT22;11592;45.460;9.240;2023-09-12T04:47:25;22.30;99.90
22852;DHT22;11592;45.460;9.240;2023-09-12T04:49:54;22.40;99.90
22852;DHT22;11592;45.460;9.240;2023-09-12T04:52:20;22.30;99.90
22852;DHT22;11592;45.460;9.240;2023-09-12T04:54:47;22.30;99.90
22852;DHT22;11592;45.460;9.240;2023-09-12T04:57:14;22.30;99.90
22852;DHT22;11592;45.460;9.240;2023-09-12T04:59:41;22.40;99.90
22852;DHT22;11592;45.460;9.240;2023-09-12T05:02:08;22.30;99.90
22852;DHT22;11592;45.460;9.240;2023-09-12T05:04:35;22.20;99.90
22852;DHT22;11592;45.460;9.240;2023-09-12T05:07:02;22.20;99.90
22852;DHT22;11592;45.460;9.240;2023-09-12T05:09:29;22.20;99.90
22852;DHT22;11592;45.460;9.240;2023-09-12T05:11:55;22.30;99.90
22852;DHT22;11592;45.460;9.240;2023-09-12T05:14:22;22.30;99.90
22852;DHT22;11592;45.460;9.240;2023-09-12T05:16:49;22.40;99.90
22852;DHT22;11592;45.460;9.240;2023-09-12T05:19:16;22.50;99.90
22852;DHT22;11592;45.460;9.240;2023-09-12T05:21:42;22.50;99.90
22852;DHT22;11592;45.460;9.240;2023-09-12T05:24:10;22.60;99.90
22852;DHT22;11592;45.460;9.240;2023-09-12T05:26:37;22.60;99.90
22852;DHT22;11592;45.460;9.240;2023-09-12T05:29:04;22.60;99.90
22852;DHT22;11592;45.460;9.240;2023-09-12T05:31:32;22.60;99.90
22852;DHT22;11592;45.460;9.240;2023-09-12T05:33:59;22.60;99.90
22852;DHT22;11592;45.460;9.240;2023-09-12T05:36:26;22.70;99.90
22852;DHT22;11592;45.460;9.240;2023-09-12T05:38:53;22.70;99.90
22852;DHT22;11592;45.460;9.240;2023-09-12T05:41:19;22.70;99.90
22852;DHT22;11592;45.460;9.240;2023-09-12T05:43:46;22.50;99.90
22852;DHT22;11592;45.460;9.240;2023-09-12T05:46:13;22.70;99.90
22852;DHT22;11592;45.460;9.240;2023-09-12T05:48:40;22.80;99.90
22852;DHT22;11592;45.460;9.240;2023-09-12T05:51:07;22.80;99.90
22852;DHT22;11592;45.460;9.240;2023-09-12T05:53:34;22.70;99.90
22852;DHT22;11592;45.460;9.240;2023-09-12T05:56:01;22.70;99.90
22852;DHT22;11592;45.460;9.240;2023-09-12T05:58:28;22.80;99.90
22852;DHT22;11592;45.460;9.240;2023-09-12T06:00:56;22.90;99.90
22852;DHT22;11592;45.460;9.240;2023-09-12T06:03:23;23.00;99.90
22852;DHT22;11592;45.460;9.240;2023-09-12T06:05:50;23.20;99.90
22852;DHT22;11592;45.460;9.240;2023-09-12T06:08:17;23.30;99.90
22852;DHT22;11592;45.460;9.240;2023-09-12T06:10:44;23.10;99.90
22852;DHT22;11592;45.460;9.240;2023-09-12T06:13:10;23.20;99.90
22852;DHT22;11592;45.460;9.240;2023-09-12T06:15:39;23.20;99.90
22852;DHT22;11592;45.460;9.240;2023-09-12T06:18:07;23.30;99.90
22852;DHT22;11592;45.460;9.240;2023-09-12T06:20:34;23.40;99.90
22852;DHT22;11592;45.460;9.240;2023-09-12T06:23:01;23.50;99.90
22852;DHT22;11592;45.460;9.240;2023-09-12T06:25:29;23.60;99.90
22852;DHT22;11592;45.460;9.240;2023-09-12T06:27:56;23.60;99.90
22852;DHT22;11592;45.460;9.240;2023-09-12T06:30:23;23.70;99.90
22852;DHT22;11592;45.460;9.240;2023-09-12T06:32:50;23.70;99.90
22852;DHT22;11592;45.460;9.240;2023-09-12T06:35:17;23.80;99.90
22852;DHT22;11592;45.460;9.240;2023-09-12T06:37:44;23.90;99.90
22852;DHT22;11592;45.460;9.240;2023-09-12T06:40:11;23.90;99.90
22852;DHT22;11592;45.460;9.240;2023-09-12T06:42:38;23.90;99.90
22852;DHT22;11592;45.460;9.240;2023-09-12T06:45:05;23.90;99.90
22852;DHT22;11592;45.460;9.240;2023-09-12T06:47:32;23.90;99.90
22852;DHT22;11592;45.460;9.240;2023-09-12T06:49:59;23.90;99.90
22852;DHT22;11592;45.460;9.240;2023-09-12T06:52:25;23.90;99.90
22852;DHT22;11592;45.460;9.240;2023-09-12T06:54:52;23.90;99.90
22852;DHT22;11592;45.460;9.240;2023-09-12T06:57:19;24.00;99.90
22852;DHT22;11592;45.460;9.240;2023-09-12T06:59:46;23.90;99.90
22852;DHT22;11592;45.460;9.240;2023-09-12T07:02:15;24.00;99.90
22852;DHT22;11592;45.460;9.240;2023-09-12T07:04:45;24.00;99.90
22852;DHT22;11592;45.460;9.240;2023-09-12T07:07:12;24.00;99.90
22852;DHT22;11592;45.460;9.240;2023-09-12T07:09:39;24.10;99.90
22852;DHT22;11592;45.460;9.240;2023-09-12T07:12:06;24.30;99.90
22852;DHT22;11592;45.460;9.240;2023-09-12T07:14:33;24.40;99.90
22852;DHT22;11592;45.460;9.240;2023-09-12T07:16:59;24.50;99.90
22852;DHT22;11592;45.460;9.240;2023-09-12T07:19:26;24.50;99.90
22852;DHT22;11592;45.460;9.240;2023-09-12T07:21:54;24.50;99.90
22852;DHT22;11592;45.460;9.240;2023-09-12T07:24:25;24.60;99.90
22852;DHT22;11592;45.460;9.240;2023-09-12T07:26:53;24.60;99.90
22852;DHT22;11592;45.460;9.240;2023-09-12T07:29:20;24.60;99.90
22852;DHT22;11592;45.460;9.240;2023-09-12T07:31:47;24.60;99.90
22852;DHT22;11592;45.460;9.240;2023-09-12T07:34:14;24.70;99.90
22852;DHT22;11592;45.460;9.240;2023-09-12T07:36:41;24.70;99.90
22852;DHT22;11592;45.460;9.240;2023-09-12T07:39:08;24.90;99.90
22852;DHT22;11592;45.460;9.240;2023-09-12T07:41:35;25.00;99.90
22852;DHT22;11592;45.460;9.240;2023-09-12T07:44:02;25.10;99.90
22852;DHT22;11592;45.460;9.240;2023-09-12T07:46:31;25.20;99.90
22852;DHT22;11592;45.460;9.240;2023-09-12T07:48:58;25.20;99.90
22852;DHT22;11592;45.460;9.240;2023-09-12T07:51:25;25.30;99.90
22852;DHT22;11592;45.460;9.240;2023-09-12T07:53:51;25.40;99.90
22852;DHT22;11592;45.460;9.240;2023-09-12T07:56:18;25.40;99.90
22852;DHT22;11592;45.460;9.240;2023-09-12T07:58:45;25.30;99.90
22852;DHT22;11592;45.460;9.240;2023-09-12T08:01:12;25.30;99.90
22852;DHT22;11592;45.460;9.240;2023-09-12T08:03:42;25.40;99.90
22852;DHT22;11592;45.460;9.240;2023-09-12T08:06:10;25.50;99.90
22852;DHT22;11592;45.460;9.240;2023-09-12T08:08:37;25.60;99.90
22852;DHT22;11592;45.460;9.240;2023-09-12T08:11:04;25.50;99.90
22852;DHT22;11592;45.460;9.240;2023-09-12T08:13:31;25.40;99.90
22852;DHT22;11592;45.460;9.240;2023-09-12T08:15:58;25.50;99.90
22852;DHT22;11592;45.460;9.240;2023-09-12T08:18:28;25.60;99.90
22852;DHT22;11592;45.460;9.240;2023-09-12T08:20:55;25.60;99.90
22852;DHT22;11592;45.460;9.240;2023-09-12T08:23:22;25.80;99.90
22852;DHT22;11592;45.460;9.240;2023-09-12T08:25:49;25.90;99.90
22852;DHT22;11592;45.460;9.240;2023-09-12T08:28:16;26.00;99.90
22852;DHT22;11592;45.460;9.240;2023-09-12T08:30:44;26.20;99.90
22852;DHT22;11592;45.460;9.240;2023-09-12T08:33:13;26.30;99.90
22852;DHT22;11592;45.460;9.240;2023-09-12T08:35:40;26.40;99.90
22852;DHT22;11592;45.460;9.240;2023-09-12T08:38:06;26.50;99.90
22852;DHT22;11592;45.460;9.240;2023-09-12T08:40:35;26.50;99.90
22852;DHT22;11592;45.460;9.240;2023-09-12T08:43:02;26.60;99.90
22852;DHT22;11592;45.460;9.240;2023-09-12T08:45:33;26.70;99.90
22852;DHT22;11592;45.460;9.240;2023-09-12T08:48:03;26.90;99.90
22852;DHT22;11592;45.460;9.240;2023-09-12T08:50:31;26.80;99.90
22852;DHT22;11592;45.460;9.240;2023-09-12T08:53:00;26.90;99.90
22852;DHT22;11592;45.460;9.240;2023-09-12T08:55:35;27.10;99.90
22852;DHT22;11592;45.460;9.240;2023-09-12T08:58:04;27.40;99.90
22852;DHT22;11592;45.460;9.240;2023-09-12T09:00:32;27.30;99.90
22852;DHT22;11592;45.460;9.240;2023-09-12T09:02:59;26.90;99.90
22852;DHT22;11592;45.460;9.240;2023-09-12T09:05:27;26.50;99.90
22852;DHT22;11592;45.460;9.240;2023-09-12T09:07:56;26.20;99.90
22852;DHT22;11592;45.460;9.240;2023-09-12T09:10:24;26.30;99.90
22852;DHT22;11592;45.460;9.240;2023-09-12T09:13:08;26.50;99.90
22852;DHT22;11592;45.460;9.240;2023-09-12T09:15:37;26.40;99.90
22852;DHT22;11592;45.460;9.240;2023-09-12T09:18:09;26.40;99.90
22852;DHT22;11592;45.460;9.240;2023-09-12T09:20:38;26.50;99.90
22852;DHT22;11592;45.460;9.240;2023-09-12T09:23:08;26.70;99.90
22852;DHT22;11592;45.460;9.240;2023-09-12T09:25:40;26.80;99.90
22852;DHT22;11592;45.460;9.240;2023-09-12T09:28:17;27.00;99.90
22852;DHT22;11592;45.460;9.240;2023-09-12T09:30:47;27.10;99.90
22852;DHT22;11592;45.460;9.240;2023-09-12T09:33:14;27.30;99.90
22852;DHT22;11592;45.460;9.240;2023-09-12T09:35:42;27.40;99.90
22852;DHT22;11592;45.460;9.240;2023-09-12T09:38:09;27.60;99.90
22852;DHT22;11592;45.460;9.240;2023-09-12T09:40:36;27.80;99.90
22852;DHT22;11592;45.460;9.240;2023-09-12T09:43:04;28.00;99.90
22852;DHT22;11592;45.460;9.240;2023-09-12T09:45:31;28.10;99.90
22852;DHT22;11592;45.460;9.240;2023-09-12T09:48:05;28.10;99.90
22852;DHT22;11592;45.460;9.240;2023-09-12T09:50:35;28.10;99.90
22852;DHT22;11592;45.460;9.240;2023-09-12T09:53:05;28.00;99.90
22852;DHT22;11592;45.460;9.240;2023-09-12T09:55:35;28.10;99.90
22852;DHT22;11592;45.460;9.240;2023-09-12T09:58:05;28.20;99.90
22852;DHT22;11592;45.460;9.240;2023-09-12T10:00:34;27.90;99.90
22852;DHT22;11592;45.460;9.240;2023-09-12T10:03:06;27.80;99.90
22852;DHT22;11592;45.460;9.240;2023-09-12T10:05:37;28.00;99.90
22852;DHT22;11592;45.460;9.240;2023-09-12T10:08:06;28.40;99.90
22852;DHT22;11592;45.460;9.240;2023-09-12T10:10:33;28.30;99.90
22852;DHT22;11592;45.460;9.240;2023-09-12T10:13:03;28.30;99.90
22852;DHT22;11592;45.460;9.240;2023-09-12T10:15:34;28.00;99.90
22852;DHT22;11592;45.460;9.240;2023-09-12T10:18:07;27.80;99.90
22852;DHT22;11592;45.460;9.240;2023-09-12T10:21:04;27.90;99.90
22852;DHT22;11592;45.460;9.240;2023-09-12T10:26:04;28.50;99.90
22852;DHT22;11592;45.460;9.240;2023-09-12T10:28:31;28.70;99.90
22852;DHT22;11592;45.460;9.240;2023-09-12T10:31:00;29.10;99.90
22852;DHT22;11592;45.460;9.240;2023-09-12T10:33:28;29.40;99.90
22852;DHT22;11592;45.460;9.240;2023-09-12T10:35:59;29.70;99.90
22852;DHT22;11592;45.460;9.240;2023-09-12T10:38:28;30.10;99.90
22852;DHT22;11592;45.460;9.240;2023-09-12T10:40:57;30.50;99.90
22852;DHT22;11592;45.460;9.240;2023-09-12T10:43:26;31.00;99.90
22852;DHT22;11592;45.460;9.240;2023-09-12T10:45:55;31.50;99.90
22852;DHT22;11592;45.460;9.240;2023-09-12T10:48:23;31.80;99.90
22852;DHT22;11592;45.460;9.240;2023-09-12T10:50:50;32.00;99.90
22852;DHT22;11592;45.460;9.240;2023-09-12T10:53:17;32.30;99.90
22852;DHT22;11592;45.460;9.240;2023-09-12T10:56:17;32.70;99.90
22852;DHT22;11592;45.460;9.240;2023-09-12T11:01:43;32.50;99.80
22852;DHT22;11592;45.460;9.240;2023-09-12T11:06:47;31.50;99.90
22852;DHT22;11592;45.460;9.240;2023-09-12T11:09:20;31.40;99.90
22852;DHT22;11592;45.460;9.240;2023-09-12T11:11:54;31.20;99.90
22852;DHT22;11592;45.460;9.240;2023-09-12T11:14:21;31.60;99.90
22852;DHT22;11592;45.460;9.240;2023-09-12T11:19:45;32.00;99.90
22852;DHT22;11592;45.460;9.240;2023-09-12T11:22:22;32.50;99.80
22852;DHT22;11592;45.460;9.240;2023-09-12T11:24:49;32.60;99.10
22852;DHT22;11592;45.460;9.240;2023-09-12T11:27:16;32.70;99.90
22852;DHT22;11592;45.460;9.240;2023-09-12T11:29:44;32.40;99.10
22852;DHT22;11592;45.460;9.240;2023-09-12T11:32:30;32.50;98.90
22852;DHT22;11592;45.460;9.240;2023-09-12T11:34:59;32.60;98.10
22852;DHT22;11592;45.460;9.240;2023-09-12T11:37:26;32.40;98.10
22852;DHT22;11592;45.460;9.240;2023-09-12T11:39:54;31.60;98.40
22852;DHT22;11592;45.460;9.240;2023-09-12T11:42:21;31.20;98.90
22852;DHT22;11592;45.460;9.240;2023-09-12T11:44:51;31.30;99.30
22852;DHT22;11592;45.460;9.240;2023-09-12T11:47:18;31.20;98.70
22852;DHT22;11592;45.460;9.240;2023-09-12T11:49:45;31.00;98.90
22852;DHT22;11592;45.460;9.240;2023-09-12T11:52:13;30.80;99.10
22852;DHT22;11592;45.460;9.240;2023-09-12T11:54:43;30.80;99.20
22852;DHT22;11592;45.460;9.240;2023-09-12T11:57:14;30.90;98.90
22852;DHT22;11592;45.460;9.240;2023-09-12T11:59:44;30.80;98.40
22852;DHT22;11592;45.460;9.240;2023-09-12T12:02:18;30.50;98.80
22852;DHT22;11592;45.460;9.240;2023-09-12T12:04:45;30.90;99.00
22852;DHT22;11592;45.460;9.240;2023-09-12T12:07:13;31.50;97.80
22852;DHT22;11592;45.460;9.240;2023-09-12T12:09:40;32.50;97.50
22852;DHT22;11592;45.460;9.240;2023-09-12T12:12:12;33.60;95.50
22852;DHT22;11592;45.460;9.240;2023-09-12T12:14:40;34.00;94.60
22852;DHT22;11592;45.460;9.240;2023-09-12T12:17:11;34.30;94.10
22852;DHT22;11592;45.460;9.240;2023-09-12T12:19:39;34.30;93.10
22852;DHT22;11592;45.460;9.240;2023-09-12T12:22:06;33.90;92.50
22852;DHT22;11592;45.460;9.240;2023-09-12T12:24:44;34.40;92.10
22852;DHT22;11592;45.460;9.240;2023-09-12T12:27:11;34.70;91.70
22852;DHT22;11592;45.460;9.240;2023-09-12T12:29:38;35.00;92.90
22852;DHT22;11592;45.460;9.240;2023-09-12T12:32:10;34.90;90.10
22852;DHT22;11592;45.460;9.240;2023-09-12T12:34:37;35.10;88.80
22852;DHT22;11592;45.460;9.240;2023-09-12T12:37:29;34.70;89.80
22852;DHT22;11592;45.460;9.240;2023-09-12T12:40:00;35.20;88.70
22852;DHT22;11592;45.460;9.240;2023-09-12T12:42:34;34.90;87.70
22852;DHT22;11592;45.460;9.240;2023-09-12T12:45:20;34.70;88.80
22852;DHT22;11592;45.460;9.240;2023-09-12T12:47:54;35.10;88.30
22852;DHT22;11592;45.460;9.240;2023-09-12T12:50:21;34.40;89.10
22852;DHT22;11592;45.460;9.240;2023-09-12T12:52:49;34.10;90.00
22852;DHT22;11592;45.460;9.240;2023-09-12T12:55:16;34.90;89.00
22852;DHT22;11592;45.460;9.240;2023-09-12T12:57:44;35.30;87.60
22852;DHT22;11592;45.460;9.240;2023-09-12T13:00:13;36.30;86.60
22852;DHT22;11592;45.460;9.240;2023-09-12T13:02:42;39.80;83.60
22852;DHT22;11592;45.460;9.240;2023-09-12T13:05:26;40.70;79.30
22852;DHT22;11592;45.460;9.240;2023-09-12T13:07:53;39.80;76.90
22852;DHT22;11592;45.460;9.240;2023-09-12T13:10:21;38.90;76.50
22852;DHT22;11592;45.460;9.240;2023-09-12T13:12:49;37.60;77.00
22852;DHT22;11592;45.460;9.240;2023-09-12T13:15:16;36.10;81.30
22852;DHT22;11592;45.460;9.240;2023-09-12T13:17:44;35.60;80.70
22852;DHT22;11592;45.460;9.240;2023-09-12T13:20:11;35.80;81.80
22852;DHT22;11592;45.460;9.240;2023-09-12T13:22:38;35.60;82.00
22852;DHT22;11592;45.460;9.240;2023-09-12T13:25:05;35.90;82.30
22852;DHT22;11592;45.460;9.240;2023-09-12T13:27:33;36.20;81.90
22852;DHT22;11592;45.460;9.240;2023-09-12T13:30:00;38.00;80.50
22852;DHT22;11592;45.460;9.240;2023-09-12T13:32:27;41.50;75.00
22852;DHT22;11592;45.460;9.240;2023-09-12T13:34:53;43.50;69.70
22852;DHT22;11592;45.460;9.240;2023-09-12T13:37:20;44.20;63.00
22852;DHT22;11592;45.460;9.240;2023-09-12T13:39:48;44.80;59.50
22852;DHT22;11592;45.460;9.240;2023-09-12T13:42:17;44.90;57.60
22852;DHT22;11592;45.460;9.240;2023-09-12T13:44:48;44.40;55.80
22852;DHT22;11592;45.460;9.240;2023-09-12T13:47:15;43.50;56.40
22852;DHT22;11592;45.460;9.240;2023-09-12T13:49:49;43.50;56.40
22852;DHT22;11592;45.460;9.240;2023-09-12T13:52:20;42.90;56.40
22852;DHT22;11592;45.460;9.240;2023-09-12T13:54:47;41.30;57.00
22852;DHT22;11592;45.460;9.240;2023-09-12T13:57:15;39.40;60.20
22852;DHT22;11592;45.460;9.240;2023-09-12T13:59:42;38.20;61.60
22852;DHT22;11592;45.460;9.240;2023-09-12T14:02:12;37.00;65.00
22852;DHT22;11592;45.460;9.240;2023-09-12T14:04:40;36.10;68.20
22852;DHT22;11592;45.460;9.240;2023-09-12T14:07:08;35.50;69.20
22852;DHT22;11592;45.460;9.240;2023-09-12T14:09:35;34.20;72.00
22852;DHT22;11592;45.460;9.240;2023-09-12T14:12:03;34.00;73.70
22852;DHT22;11592;45.460;9.240;2023-09-12T14:14:35;33.50;75.00
22852;DHT22;11592;45.460;9.240;2023-09-12T14:17:01;33.20;77.50
22852;DHT22;11592;45.460;9.240;2023-09-12T14:19:29;32.80;79.00
22852;DHT22;11592;45.460;9.240;2023-09-12T14:21:56;33.20;80.70
22852;DHT22;11592;45.460;9.240;2023-09-12T14:24:25;33.40;81.60
22852;DHT22;11592;45.460;9.240;2023-09-12T14:26:52;33.70;82.60
22852;DHT22;11592;45.460;9.240;2023-09-12T14:29:20;33.80;81.00
22852;DHT22;11592;45.460;9.240;2023-09-12T14:31:48;33.30;79.30
22852;DHT22;11592;45.460;9.240;2023-09-12T14:34:25;32.80;81.70
22852;DHT22;11592;45.460;9.240;2023-09-12T14:36:56;33.10;83.40
22852;DHT22;11592;45.460;9.240;2023-09-12T14:39:24;33.20;83.10
22852;DHT22;11592;45.460;9.240;2023-09-12T14:41:51;32.70;83.10
22852;DHT22;11592;45.460;9.240;2023-09-12T14:44:21;32.30;85.00
22852;DHT22;11592;45.460;9.240;2023-09-12T14:46:48;32.40;85.30
22852;DHT22;11592;45.460;9.240;2023-09-12T14:49:16;32.30;85.00
22852;DHT22;11592;45.460;9.240;2023-09-12T14:51:43;32.40;86.60
22852;DHT22;11592;45.460;9.240;2023-09-12T14:54:10;32.40;85.60
22852;DHT22;11592;45.460;9.240;2023-09-12T14:56:37;32.20;84.50
22852;DHT22;11592;45.460;9.240;2023-09-12T14:59:04;32.00;88.70
22852;DHT22;11592;45.460;9.240;2023-09-12T15:01:31;31.50;87.40
22852;DHT22;11592;45.460;9.240;2023-09-12T15:03:58;31.40;88.20
22852;DHT22;11592;45.460;9.240;2023-09-12T15:06:25;31.40;89.70
22852;DHT22;11592;45.460;9.240;2023-09-12T15:08:52;31.50;90.10
22852;DHT22;11592;45.460;9.240;2023-09-12T15:11:19;31.30;90.00
22852;DHT22;11592;45.460;9.240;2023-09-12T15:13:46;31.10;90.40
22852;DHT22;11592;45.460;9.240;2023-09-12T15:16:14;30.90;90.20
22852;DHT22;11592;45.460;9.240;2023-09-12T15:18:41;30.80;90.80
22852;DHT22;11592;45.460;9.240;2023-09-12T15:21:08;30.60;90.80
22852;DHT22;11592;45.460;9.240;2023-09-12T15:23:36;30.50;91.20
22852;DHT22;11592;45.460;9.240;2023-09-12T15:26:04;30.60;91.50
22852;DHT22;11592;45.460;9.240;2023-09-12T15:28:31;31.60;91.00
22852;DHT22;11592;45.460;9.240;2023-09-12T15:30:58;33.80;87.20
22852;DHT22;11592;45.460;9.240;2023-09-12T15:33:28;34.50;84.30
22852;DHT22;11592;45.460;9.240;2023-09-12T15:35:56;35.30;82.00
22852;DHT22;11592;45.460;9.240;2023-09-12T15:38:23;36.00;81.10
22852;DHT22;11592;45.460;9.240;2023-09-12T15:40:52;37.20;77.20
22852;DHT22;11592;45.460;9.240;2023-09-12T15:43:18;38.40;74.70
22852;DHT22;11592;45.460;9.240;2023-09-12T15:45:51;39.30;70.80
22852;DHT22;11592;45.460;9.240;2023-09-12T15:48:18;39.10;70.30